createdAt,value
2019-01-26T00:01:07.891Z,35.77
2019-01-26T00:03:36.527Z,34.47
2019-01-26T00:06:05.319Z,34.27
2019-01-26T00:08:33.989Z,34.83
2019-01-26T00:11:02.626Z,33.60
2019-01-26T00:13:31.256Z,33.20
2019-01-26T00:15:59.924Z,31.97
2019-01-26T00:18:28.490Z,31.83
2019-01-26T00:20:57.172Z,38.80
2019-01-26T00:23:25.854Z,41.80
2019-01-26T00:25:54.489Z,42.60
2019-01-26T00:28:23.157Z,38.03
2019-01-26T00:30:51.791Z,39.23
2019-01-26T00:33:20.364Z,41.80
2019-01-26T00:35:49.005Z,42.43
2019-01-26T00:38:17.698Z,45.73
2019-01-26T00:40:46.315Z,43.90
2019-01-26T00:43:14.935Z,48.53
2019-01-26T00:45:43.619Z,50.60
2019-01-26T00:48:12.249Z,51.03
2019-01-26T00:50:40.852Z,52.37
2019-01-26T00:53:09.536Z,52.17
2019-01-26T00:55:38.172Z,49.93
2019-01-26T00:58:06.790Z,48.23
2019-01-26T01:00:35.567Z,50.60
2019-01-26T01:03:04.298Z,48.53
2019-01-26T01:05:32.884Z,48.47
2019-01-26T01:08:01.631Z,48.70
2019-01-26T01:10:30.259Z,50.40
2019-01-26T01:12:58.902Z,47.33
2019-01-26T01:15:27.542Z,47.10
2019-01-26T01:17:56.223Z,44.53
2019-01-26T01:20:24.847Z,42.57
2019-01-26T01:22:53.526Z,45.60
2019-01-26T01:25:22.148Z,42.90
2019-01-26T01:27:50.824Z,42.13
2019-01-26T01:30:24.348Z,41.03
2019-01-26T01:32:53.019Z,46.80
2019-01-26T01:35:21.646Z,49.30
2019-01-26T01:37:50.310Z,51.43
2019-01-26T01:40:19.538Z,51.67
2019-01-26T01:42:48.275Z,49.17
2019-01-26T01:45:22.409Z,47.40
2019-01-26T01:47:51.201Z,47.87
2019-01-26T01:50:19.796Z,53.87
2019-01-26T01:52:48.471Z,52.40
2019-01-26T01:55:17.101Z,55.80
2019-01-26T01:57:45.736Z,53.10
2019-01-26T02:00:17.488Z,53.63
2019-01-26T02:02:46.127Z,49.77
2019-01-26T02:05:14.799Z,52.70
2019-01-26T02:07:43.435Z,51.57
2019-01-26T02:10:20.682Z,52.20
2019-01-26T02:12:49.339Z,50.43
2019-01-26T02:15:17.975Z,52.53
2019-01-26T02:17:46.862Z,47.93
2019-01-26T02:20:23.325Z,47.33
2019-01-26T02:22:52.007Z,46.73
2019-01-26T02:25:23.502Z,47.57
2019-01-26T02:27:52.124Z,49.67
2019-01-26T02:30:22.682Z,52.40
2019-01-26T02:32:51.304Z,54.70
2019-01-26T02:35:19.945Z,54.50
2019-01-26T02:37:48.654Z,51.10
2019-01-26T02:40:21.619Z,51.07
2019-01-26T02:42:50.310Z,53.60
2019-01-26T02:45:18.944Z,53.80
2019-01-26T02:47:47.515Z,54.77
2019-01-26T02:50:17.908Z,52.77
2019-01-26T02:52:46.526Z,55.77
2019-01-26T02:55:15.254Z,54.17
2019-01-26T02:57:44.028Z,55.43
2019-01-26T03:00:21.797Z,53.63
2019-01-26T03:02:50.468Z,55.70
2019-01-26T03:05:19.139Z,57.90
2019-01-26T03:07:47.767Z,59.03
2019-01-26T03:10:22.539Z,55.53
2019-01-26T03:12:51.177Z,52.47
2019-01-26T03:15:21.657Z,56.37
2019-01-26T03:17:50.391Z,58.20
2019-01-26T03:20:19.218Z,55.40
2019-01-26T03:22:47.893Z,56.50
2019-01-26T03:25:17.321Z,52.57
2019-01-26T03:27:45.955Z,49.73
2019-01-26T03:30:22.570Z,45.63
2019-01-26T03:32:54.649Z,45.07
2019-01-26T03:35:25.992Z,49.07
2019-01-26T03:37:54.563Z,48.77
2019-01-26T03:40:23.406Z,51.63
2019-01-26T03:42:52.123Z,51.17
2019-01-26T03:45:20.767Z,53.53
2019-01-26T03:47:58.589Z,50.73
2019-01-26T03:50:27.201Z,52.20
2019-01-26T03:52:55.896Z,52.90
2019-01-26T03:55:24.531Z,50.87
2019-01-26T03:57:53.227Z,46.77
2019-01-26T04:00:24.595Z,47.57
2019-01-26T04:02:53.231Z,50.17
2019-01-26T04:05:21.906Z,48.33
2019-01-26T04:07:50.631Z,44.13
2019-01-26T04:10:19.306Z,43.57
2019-01-26T04:12:47.940Z,46.80
2019-01-26T04:15:18.884Z,44.87
2019-01-26T04:17:47.717Z,44.00
2019-01-26T04:20:21.219Z,43.17
2019-01-26T04:22:50.006Z,42.90
2019-01-26T04:25:18.689Z,44.40
2019-01-26T04:27:47.312Z,43.70
2019-01-26T04:30:18.346Z,44.67
2019-01-26T04:32:47.975Z,44.60
2019-01-26T04:35:17.144Z,45.10
2019-01-26T04:37:46.371Z,46.57
2019-01-26T04:40:17.946Z,46.13
2019-01-26T04:42:46.679Z,44.67
2019-01-26T04:45:20.920Z,44.90
2019-01-26T04:47:55.729Z,47.87
2019-01-26T04:50:25.574Z,47.33
2019-01-26T04:52:54.795Z,48.10
2019-01-26T04:55:23.470Z,47.17
2019-01-26T04:57:52.094Z,49.07
2019-01-26T05:00:25.339Z,47.77
2019-01-26T05:02:53.970Z,49.63
2019-01-26T05:05:22.641Z,51.80
2019-01-26T05:07:51.257Z,53.93
2019-01-26T05:10:21.239Z,53.87
2019-01-26T05:12:50.456Z,53.80
2019-01-26T05:15:19.937Z,49.63
2019-01-26T05:17:48.624Z,49.23
2019-01-26T05:20:22.400Z,51.63
2019-01-26T05:22:51.035Z,48.83
2019-01-26T05:25:19.826Z,49.07
2019-01-26T05:27:48.434Z,52.20
2019-01-26T05:30:22.619Z,50.93
2019-01-26T05:32:51.252Z,49.80
2019-01-26T05:35:19.880Z,53.53
2019-01-26T05:37:48.516Z,51.53
2019-01-26T05:40:18.493Z,51.97
2019-01-26T05:42:47.123Z,53.50
2019-01-26T05:45:18.227Z,53.67
2019-01-26T05:47:48.823Z,56.20
2019-01-26T05:50:26.011Z,53.63
2019-01-26T05:52:54.848Z,55.20
2019-01-26T05:55:23.520Z,55.10
2019-01-26T05:57:52.149Z,54.20
2019-01-26T06:00:25.291Z,58.20
2019-01-26T06:02:54.047Z,59.23
2019-01-26T06:05:22.679Z,62.67
2019-01-26T06:07:51.319Z,58.50
2019-01-26T06:10:20.011Z,57.83
2019-01-26T06:12:48.570Z,58.03
2019-01-26T06:15:17.303Z,66.40
2019-01-26T06:17:46.082Z,67.43
2019-01-26T06:20:16.411Z,64.37
2019-01-26T06:22:45.095Z,66.30
2019-01-26T06:25:19.111Z,68.50
2019-01-26T06:27:48.150Z,67.73
2019-01-26T06:30:22.946Z,67.97
2019-01-26T06:32:51.627Z,65.53
2019-01-26T06:35:20.361Z,69.03
2019-01-26T06:37:49.020Z,65.90
2019-01-26T06:40:21.831Z,63.90
2019-01-26T06:42:50.457Z,67.83
2019-01-26T06:45:20.537Z,65.33
2019-01-26T06:47:49.173Z,62.83
2019-01-26T06:50:25.133Z,59.63
2019-01-26T06:52:53.791Z,56.50
2019-01-26T06:55:22.563Z,59.93
2019-01-26T06:57:51.251Z,62.93
2019-01-26T07:00:26.663Z,60.17
2019-01-26T07:02:55.848Z,58.73
2019-01-26T07:05:32.322Z,57.97
2019-01-26T07:08:01.016Z,55.00
2019-01-26T07:10:29.653Z,54.20
2019-01-26T07:12:58.294Z,56.13
2019-01-26T07:15:27.052Z,54.17
2019-01-26T07:17:55.702Z,51.47
2019-01-26T07:20:24.323Z,52.40
2019-01-26T07:22:52.945Z,55.77
2019-01-26T07:25:21.627Z,56.40
2019-01-26T07:27:53.119Z,57.13
2019-01-26T07:30:23.651Z,56.93
2019-01-26T07:32:52.352Z,58.43
2019-01-26T07:35:21.225Z,56.67
2019-01-26T07:37:49.789Z,56.53
2019-01-26T07:40:23.081Z,58.90
2019-01-26T07:42:52.065Z,56.47
2019-01-26T07:45:20.901Z,57.07
2019-01-26T07:47:49.669Z,58.47
2019-01-26T07:50:26.400Z,52.43
2019-01-26T07:52:55.081Z,57.53
2019-01-26T07:55:23.711Z,58.63
2019-01-26T07:57:55.412Z,56.77
2019-01-26T08:00:28.931Z,51.40
2019-01-26T08:02:57.622Z,54.70
2019-01-26T08:05:27.034Z,53.43
2019-01-26T08:07:55.739Z,54.23
2019-01-26T08:10:26.388Z,56.50
2019-01-26T08:12:55.306Z,54.37
2019-01-26T08:15:26.889Z,54.40
2019-01-26T08:17:55.450Z,57.67
2019-01-26T08:20:24.427Z,52.47
2019-01-26T08:22:53.178Z,53.07
2019-01-26T08:25:21.810Z,51.80
2019-01-26T08:27:50.539Z,53.83
2019-01-26T08:30:21.326Z,53.50
2019-01-26T08:32:50.807Z,67.23
2019-01-26T08:35:19.788Z,56.20
2019-01-26T08:37:49.357Z,61.67
2019-01-26T08:40:19.991Z,59.23
2019-01-26T08:42:48.895Z,33.00
2019-01-26T08:45:24.420Z,17.43
2019-01-26T08:47:53.018Z,16.67
2019-01-26T08:50:24.101Z,16.47
2019-01-26T08:52:52.799Z,16.03
2019-01-26T08:55:21.615Z,17.67
2019-01-26T08:57:53.230Z,18.17
2019-01-26T09:00:24.950Z,16.93
2019-01-26T09:10:06.057Z,17.17
2019-01-26T09:13:13.573Z,18.23
2019-01-26T09:16:06.688Z,17.07
2019-01-26T09:19:11.491Z,18.57
2019-01-26T09:22:01.015Z,21.27
2019-01-26T09:32:03.611Z,18.50
2019-01-26T09:35:17.514Z,17.97
2019-01-26T09:38:07.750Z,20.57
2019-01-26T09:44:39.383Z,19.13
2019-01-26T09:51:02.605Z,19.70
2019-01-26T09:53:54.500Z,17.23
2019-01-26T09:57:01.715Z,18.27
2019-01-26T10:06:32.464Z,17.43
2019-01-26T10:23:03.047Z,18.50
2019-01-26T10:29:21.108Z,18.67
2019-01-26T10:38:32.176Z,18.80
2019-01-26T10:41:10.878Z,19.80
2019-01-26T10:44:12.697Z,18.30
2019-01-26T10:46:43.105Z,21.80
2019-01-26T10:49:20.804Z,20.60
2019-01-26T10:51:51.198Z,20.00
2019-01-26T10:54:25.980Z,20.40
2019-01-26T10:59:53.682Z,19.43
2019-01-26T14:12:15.717Z,19.63
2019-01-26T14:15:06.635Z,21.13
2019-01-26T14:21:46.556Z,19.10
2019-01-26T14:24:15.190Z,19.40
2019-01-26T14:26:49.641Z,20.97
2019-01-26T14:36:49.952Z,22.53
2019-01-26T14:39:39.974Z,20.07
2019-01-26T14:45:44.482Z,21.50
2019-01-26T14:48:36.311Z,21.80
2019-01-26T14:51:45.131Z,23.30
2019-01-26T14:54:38.520Z,24.90
2019-01-26T15:00:59.322Z,20.03
2019-01-26T15:03:47.161Z,22.60
2019-01-26T15:23:23.043Z,23.93
2019-01-26T15:30:16.006Z,27.73
2019-01-26T15:46:32.957Z,23.47
2019-01-26T15:52:50.608Z,23.37
2019-01-26T15:58:42.045Z,22.93
2019-01-26T16:34:06.358Z,25.03
2019-01-26T16:37:13.048Z,22.87
2019-01-26T17:00:37.629Z,21.50
2019-01-26T17:03:53.129Z,23.63
2019-01-26T17:06:42.470Z,24.50
2019-01-26T17:16:41.758Z,25.80
2019-01-26T17:19:49.737Z,27.70
2019-01-26T17:29:26.048Z,21.27
2019-01-26T17:42:38.938Z,25.63
2019-01-26T17:58:33.018Z,21.43
2019-01-26T18:04:49.916Z,23.40
2019-01-26T18:07:58.370Z,21.03
2019-01-26T18:17:35.167Z,23.13
2019-01-26T18:23:44.518Z,21.40
2019-01-26T19:42:18.450Z,18.00
2019-01-26T19:45:11.127Z,19.73
2019-01-26T19:51:00.514Z,18.20
2019-01-26T20:48:33.806Z,21.73
2019-01-26T20:58:01.953Z,20.83
2019-01-26T21:11:34.851Z,28.47
2019-01-26T21:14:25.780Z,26.03
2019-01-26T21:17:42.786Z,27.20
2019-01-26T21:20:50.914Z,25.10
2019-01-26T21:30:22.747Z,30.90
2019-01-26T21:36:43.399Z,28.57
2019-01-26T21:39:34.655Z,27.53
2019-01-26T21:59:47.341Z,28.57
2019-01-26T22:06:15.186Z,26.03
2019-01-26T22:12:04.803Z,27.03
2019-01-26T22:15:20.126Z,27.27
2019-01-26T22:18:37.950Z,24.47
2019-01-26T22:21:30.620Z,25.83
2019-01-26T22:24:43.518Z,26.30
2019-01-26T22:34:43.905Z,24.63
2019-01-26T22:37:20.189Z,25.93
2019-01-26T23:00:21.170Z,25.03
2019-01-26T23:13:10.275Z,23.63
2019-01-26T23:16:18.993Z,22.73
2019-01-26T23:19:42.621Z,25.53
2019-01-26T23:26:08.557Z,22.13
2019-01-26T23:42:07.090Z,17.47
2019-01-26T23:44:56.366Z,18.40
2019-01-26T23:54:34.594Z,23.73
2019-01-26T23:57:43.032Z,24.73
